Time;durP1;ratioP1;P1;durP2;ratioP2;P2;SDS_P1;SDS_P2;PMS_P1;PMS_P2;Temp;Humidity;BMP_temperature;BMP_pressure;BME280_temperature;BME280_humidity;BME280_pressure;Samples;Min_cycle;Max_cycle;Signal;HPM_P1;HPM_P2
2021/04/28 00:01:50;;;;;;;1.65;0.90;;;;;;;22.33;48.90;100768.86;1761353;81;21220;-63
2021/04/28 00:04:16;;;;;;;1.32;1.00;;;;;;;22.34;48.87;100767.72;1760314;80;21168;-62
2021/04/28 00:06:42;;;;;;;1.10;0.85;;;;;;;22.35;48.83;100779.63;1757966;80;21225;-62
2021/04/28 00:09:09;;;;;;;1.85;0.95;;;;;;;22.35;48.81;100781.01;1764991;79;21176;-62
2021/04/28 00:11:36;;;;;;;1.20;0.90;;;;;;;22.35;48.77;100779.05;1765130;80;21194;-62
2021/04/28 00:14:04;;;;;;;1.20;1.00;;;;;;;22.36;48.74;100789.58;1772422;80;21549;-62
2021/04/28 00:16:32;;;;;;;1.50;0.98;;;;;;;22.36;48.71;100791.78;1757627;81;21165;-62
2021/04/28 00:18:58;;;;;;;2.00;1.10;;;;;;;22.36;48.69;100789.58;1759453;81;21210;-62
2021/04/28 00:21:26;;;;;;;1.77;1.05;;;;;;;22.36;48.65;100800.09;1768523;80;21209;-62
2021/04/28 00:23:52;;;;;;;1.70;1.00;;;;;;;22.36;48.61;100797.32;1766980;81;21572;-63
2021/04/28 00:26:19;;;;;;;1.70;0.93;;;;;;;22.36;48.59;100795.94;1767219;80;21198;-62
2021/04/28 00:28:46;;;;;;;1.47;1.00;;;;;;;22.38;48.55;100792.81;1762859;79;21171;-61
2021/04/28 00:31:13;;;;;;;1.30;1.00;;;;;;;22.36;48.53;100791.78;1775254;79;21278;-61
2021/04/28 00:33:40;;;;;;;1.07;0.80;;;;;;;22.38;48.50;100794.20;1768114;79;21248;-64
2021/04/28 00:36:07;;;;;;;1.98;1.10;;;;;;;22.38;48.48;100783.11;1777442;79;21588;-60
2021/04/28 00:38:36;;;;;;;1.22;1.10;;;;;;;22.37;48.42;100773.16;1771286;79;21547;-61
2021/04/28 00:41:07;;;;;;;1.45;1.00;;;;;;;22.37;48.42;100769.81;1770006;79;21556;-62
2021/04/28 00:43:35;;;;;;;0.98;0.88;;;;;;;22.37;48.37;100773.16;1775202;80;21163;-63
2021/04/28 00:46:01;;;;;;;1.72;1.30;;;;;;;22.37;48.32;100765.66;1773581;79;21180;-62
2021/04/28 00:48:28;;;;;;;1.05;0.90;;;;;;;22.37;48.28;100764.84;1777871;80;21190;-62
2021/04/28 00:50:54;;;;;;;1.02;0.93;;;;;;;22.37;48.24;100769.00;1776162;79;21499;-63
2021/04/28 00:53:23;;;;;;;1.02;0.88;;;;;;;22.37;48.20;100768.44;1768696;80;21189;-63
2021/04/28 00:55:50;;;;;;;1.27;1.00;;;;;;;22.37;48.16;100776.75;1771736;79;21200;-63
2021/04/28 00:58:16;;;;;;;1.77;1.00;;;;;;;22.37;48.14;100773.98;1773852;79;21186;-62
2021/04/28 01:00:43;;;;;;;0.98;0.80;;;;;;;22.37;48.11;100760.69;1741238;79;21600;-62
2021/04/28 01:03:09;;;;;;;1.40;0.90;;;;;;;22.37;48.05;100760.12;1768835;79;21182;-62
2021/04/28 01:05:36;;;;;;;1.60;1.07;;;;;;;22.37;48.01;100758.73;1776017;79;21540;-62
2021/04/28 01:08:03;;;;;;;1.47;1.12;;;;;;;22.37;48.00;100753.76;1778783;79;21217;-62
2021/04/28 01:10:34;;;;;;;1.30;0.98;;;;;;;22.36;47.97;100754.36;1773363;78;21192;-62
2021/04/28 01:13:01;;;;;;;2.62;0.80;;;;;;;22.37;47.94;100751.80;1773471;79;21692;-62
2021/04/28 01:15:31;;;;;;;1.35;0.90;;;;;;;22.37;47.92;100756.53;1773920;79;21627;-62
2021/04/28 01:18:00;;;;;;;1.35;0.90;;;;;;;22.37;47.88;100757.91;1767935;79;22378;-62
2021/04/28 01:20:28;;;;;;;1.72;1.17;;;;;;;22.37;47.84;100756.53;1774605;79;21246;-62
2021/04/28 01:22:54;;;;;;;1.67;1.02;;;;;;;22.36;47.84;100754.36;1770655;79;21630;-62
2021/04/28 01:25:24;;;;;;;1.07;0.90;;;;;;;22.36;47.79;100759.08;1769937;79;21560;-62
2021/04/28 01:28:14;;;;;;;1.65;0.95;;;;;;;22.35;47.78;100761.03;1756509;80;21192;-62
2021/04/28 01:30:54;;;;;;;1.75;1.05;;;;;;;22.35;47.75;100760.22;1751518;80;21204;-62
2021/04/28 01:33:44;;;;;;;1.85;0.90;;;;;;;22.35;47.71;100760.22;1759472;80;21267;-62
2021/04/28 01:36:15;;;;;;;1.40;0.90;;;;;;;22.33;47.69;100753.61;1746492;81;26877;-62
2021/04/28 01:38:44;;;;;;;1.17;0.95;;;;;;;22.33;47.67;100748.06;1758906;81;21661;-62
2021/04/28 01:41:10;;;;;;;1.17;0.90;;;;;;;22.32;47.63;100756.13;1755622;79;21488;-62
2021/04/28 01:43:36;;;;;;;1.77;0.90;;;;;;;22.32;47.63;100757.52;1755346;80;21524;-62
2021/04/28 01:46:03;;;;;;;0.98;0.80;;;;;;;22.31;47.59;100762.27;1734775;81;21198;-62
2021/04/28 01:48:30;;;;;;;1.60;1.00;;;;;;;22.32;47.56;100761.67;1726793;80;21652;-62
2021/04/28 01:50:56;;;;;;;0.95;0.82;;;;;;;22.32;47.55;100751.97;1753493;80;21177;-64
2021/04/28 01:53:23;;;;;;;1.42;0.88;;;;;;;22.31;47.53;100753.14;1714188;80;21201;-63
2021/04/28 01:55:52;;;;;;;1.00;0.85;;;;;;;22.32;47.53;100760.29;1758162;80;21176;-63
2021/04/28 01:58:19;;;;;;;1.10;0.95;;;;;;;22.31;47.49;100761.45;1760051;80;21549;-62
2021/04/28 02:00:45;;;;;;;1.77;1.00;;;;;;;22.31;47.47;100759.50;1757361;80;21559;-61
2021/04/28 02:03:12;;;;;;;1.77;1.02;;;;;;;22.31;47.46;100766.43;1756280;79;21133;-62
2021/04/28 02:05:38;;;;;;;1.37;0.90;;;;;;;22.31;47.45;100751.76;1732492;81;21745;-63
2021/04/28 02:08:06;;;;;;;1.47;1.05;;;;;;;22.31;47.42;100755.34;1755722;81;21002;-61
2021/04/28 02:10:33;;;;;;;1.30;0.90;;;;;;;22.31;47.40;100751.76;1756005;81;22150;-61
2021/04/28 02:13:00;;;;;;;1.30;0.80;;;;;;;22.30;47.36;100745.39;1756723;81;21178;-62
2021/04/28 02:15:27;;;;;;;1.90;1.10;;;;;;;22.30;47.36;100747.35;1755800;80;21257;-63
2021/04/28 02:17:57;;;;;;;2.20;1.10;;;;;;;22.31;47.33;100751.76;1750893;80;21597;-63
2021/04/28 02:20:23;;;;;;;1.77;1.22;;;;;;;22.30;47.33;100749.55;1755397;80;21591;-63
2021/04/28 02:22:50;;;;;;;1.80;1.10;;;;;;;22.29;47.31;100749.30;1755654;80;21579;-63
2021/04/28 02:25:16;;;;;;;1.20;1.00;;;;;;;22.30;47.30;100750.13;1754229;80;21209;-63
2021/04/28 02:27:43;;;;;;;1.57;1.00;;;;;;;22.29;47.28;100752.08;1755009;80;21193;-62
2021/04/28 02:30:19;;;;;;;1.45;0.90;;;;;;;22.29;47.26;100745.14;1754543;80;21169;-62
2021/04/28 02:32:45;;;;;;;1.25;1.02;;;;;;;22.30;47.26;100747.35;1750036;79;21229;-63
2021/04/28 02:35:13;;;;;;;1.57;1.17;;;;;;;22.29;47.24;100741.56;1754939;80;23582;-63
2021/04/28 02:37:40;;;;;;;1.57;1.17;;;;;;;22.29;47.22;100734.63;1751298;80;21196;-63
2021/04/28 02:40:08;;;;;;;1.55;1.22;;;;;;;;;;1734376;80;21578;-63
2021/04/28 02:42:34;;;;;;;1.77;1.20;;;;;;;;;;1754743;80;21212;-63
2021/04/28 02:45:03;;;;;;;1.35;1.10;;;;;;;22.26;47.15;100744.43;1753335;80;21317;-63
2021/04/28 02:47:30;;;;;;;2.85;1.22;;;;;;;22.26;47.15;100739.45;1756650;80;21228;-63
2021/04/28 02:49:56;;;;;;;1.67;1.22;;;;;;;22.26;47.14;100736.69;1729546;81;21192;-63
2021/04/28 02:52:23;;;;;;;1.77;1.20;;;;;;;22.26;47.10;100738.07;1757304;80;21213;-61
2021/04/28 02:54:50;;;;;;;1.70;1.10;;;;;;;22.25;47.10;100737.25;1757987;80;21207;-62
2021/04/28 02:57:17;;;;;;;1.77;1.20;;;;;;;22.25;47.09;100738.64;1752724;80;21240;-62
2021/04/28 02:59:43;;;;;;;2.90;1.40;;;;;;;22.24;47.06;100746.70;1751930;80;21240;-63
2021/04/28 03:02:10;;;;;;;1.70;1.02;;;;;;;22.24;47.04;100734.23;1749095;80;21144;-62
2021/04/28 03:04:40;;;;;;;1.95;1.35;;;;;;;22.24;47.02;100739.77;1757100;80;21170;-63
2021/04/28 03:07:07;;;;;;;2.07;1.60;;;;;;;22.24;46.99;100737.00;1741811;81;21160;-63
2021/04/28 03:09:34;;;;;;;2.22;1.30;;;;;;;22.23;47.00;100734.02;1752866;80;21908;-63
2021/04/28 03:12:02;;;;;;;2.25;1.50;;;;;;;22.23;46.98;100743.72;1760735;81;21249;-62
2021/04/28 03:14:29;;;;;;;2.25;1.42;;;;;;;22.23;46.96;100738.73;1756488;80;21141;-62
2021/04/28 03:16:55;;;;;;;2.40;1.40;;;;;;;22.22;46.94;100752.34;1754174;81;21759;-64
2021/04/28 03:19:21;;;;;;;2.22;1.50;;;;;;;22.22;46.93;100750.96;1729180;81;21224;-63
2021/04/28 03:21:48;;;;;;;2.10;1.30;;;;;;;22.22;46.91;100753.73;1752123;81;21185;-62
2021/04/28 03:24:16;;;;;;;2.05;1.50;;;;;;;22.21;46.91;100750.14;1758658;80;23511;-63
2021/04/28 03:26:43;;;;;;;2.10;1.32;;;;;;;22.21;46.87;100750.14;1755279;81;21191;-63
2021/04/28 03:29:10;;;;;;;1.90;1.50;;;;;;;22.21;46.87;100749.33;1754616;81;21537;-62
2021/04/28 03:31:36;;;;;;;2.27;1.37;;;;;;;22.20;46.85;100754.62;1761216;80;21189;-63
2021/04/28 03:34:03;;;;;;;2.05;1.40;;;;;;;22.20;46.82;100757.39;1761700;80;21189;-63
2021/04/28 03:36:29;;;;;;;1.95;1.50;;;;;;;22.19;46.80;100759.34;1760415;81;21209;-64
2021/04/28 03:38:56;;;;;;;2.50;1.57;;;;;;;22.19;46.78;100765.48;1755452;80;21253;-63
2021/04/28 03:41:24;;;;;;;2.02;1.50;;;;;;;22.19;46.78;100771.03;1756221;81;21600;-62
2021/04/28 03:43:51;;;;;;;1.90;1.50;;;;;;;22.18;46.75;100777.14;1754942;80;21173;-63
2021/04/28 03:46:17;;;;;;;2.42;1.70;;;;;;;22.19;46.75;100777.95;1759720;80;21232;-63
2021/04/28 03:48:44;;;;;;;2.20;1.60;;;;;;;22.18;46.75;100790.17;1752911;80;21267;-62
2021/04/28 03:51:10;;;;;;;1.87;1.57;;;;;;;22.17;46.74;100783.81;1763709;80;21172;-62
2021/04/28 03:53:37;;;;;;;2.65;1.65;;;;;;;22.20;46.77;100786.48;1757549;80;21193;-61
2021/04/28 03:56:05;;;;;;;3.33;1.87;;;;;;;22.25;46.75;100794.63;1756790;80;21216;-61
2021/04/28 03:58:31;;;;;;;3.20;1.80;;;;;;;22.32;46.71;100796.32;1754588;80;21184;-61
2021/04/28 04:00:58;;;;;;;4.97;2.02;;;;;;;22.38;46.69;100800.56;1749555;80;21244;-61
2021/04/28 04:03:26;;;;;;;2.87;1.40;;;;;;;22.43;46.67;100791.26;1753839;80;21161;-61
2021/04/28 04:05:52;;;;;;;2.50;1.42;;;;;;;22.49;46.66;100802.42;1756654;80;21200;-61
2021/04/28 04:08:19;;;;;;;2.95;1.37;;;;;;;22.53;46.65;100802.80;1758494;80;21602;-61
2021/04/28 04:10:46;;;;;;;2.22;1.40;;;;;;;22.58;46.62;100801.80;1760930;80;21196;-61
2021/04/28 04:13:12;;;;;;;3.33;1.32;;;;;;;22.64;46.61;100808.23;1755073;80;21660;-62
2021/04/28 04:15:39;;;;;;;5.08;1.57;;;;;;;22.70;46.63;100797.82;1751383;80;21197;-61
2021/04/28 04:18:05;;;;;;;5.00;1.82;;;;;;;22.76;46.61;100796.47;1754911;80;21607;-62
2021/04/28 04:20:33;;;;;;;5.17;1.80;;;;;;;22.81;46.62;100797.69;1757146;80;21715;-61
2021/04/28 04:23:00;;;;;;;5.80;1.82;;;;;;;22.86;46.61;100804.44;1758585;80;21192;-61
2021/04/28 04:25:27;;;;;;;8.13;2.05;;;;;;;22.92;46.63;100803.66;1754920;79;21205;-61
2021/04/28 04:27:53;;;;;;;3.25;1.30;;;;;;;22.95;46.62;100810.77;1754915;80;21239;-61
2021/04/28 04:30:21;;;;;;;2.70;1.60;;;;;;;22.98;46.62;100822.58;1759112;79;21592;-60
2021/04/28 04:32:48;;;;;;;2.60;1.45;;;;;;;23.00;46.63;100818.09;1748971;80;21607;-61
2021/04/28 04:35:14;;;;;;;5.08;1.82;;;;;;;23.00;46.64;100828.59;1744938;80;21188;-61
2021/04/28 04:37:41;;;;;;;3.72;1.80;;;;;;;23.00;46.70;100828.59;1749025;80;21206;-61
2021/04/28 04:40:09;;;;;;;2.95;1.60;;;;;;;23.01;46.72;100822.47;1742338;80;21219;-62
2021/04/28 04:42:36;;;;;;;1.80;1.22;;;;;;;23.04;46.76;100830.94;1740862;79;21165;-61
2021/04/28 04:45:04;;;;;;;3.17;1.65;;;;;;;23.06;46.79;100832.00;1754825;80;21153;-61
2021/04/28 04:47:30;;;;;;;4.50;2.10;;;;;;;23.08;46.78;100835.28;1747361;80;21173;-62
2021/04/28 04:49:58;;;;;;;2.05;1.42;;;;;;;23.11;46.78;100828.48;1740245;80;21287;-62
2021/04/28 04:52:24;;;;;;;4.17;1.90;;;;;;;23.13;46.77;100818.41;1718513;82;21236;-60
2021/04/28 04:54:51;;;;;;;5.03;2.25;;;;;;;23.16;46.77;100824.13;1740664;81;21158;-60
2021/04/28 04:57:17;;;;;;;3.15;1.92;;;;;;;23.17;46.64;100813.25;1710020;82;21197;-61
2021/04/28 04:59:44;;;;;;;2.75;1.80;;;;;;;23.18;46.52;100817.66;1740001;82;21210;-61
2021/04/28 05:02:10;;;;;;;4.22;2.00;;;;;;;23.20;46.40;100818.72;1740314;80;22183;-62
2021/04/28 05:04:37;;;;;;;3.75;2.47;;;;;;;23.21;46.26;100814.80;1746361;80;21267;-62
2021/04/28 05:07:03;;;;;;;3.02;2.17;;;;;;;23.20;46.05;100818.16;1760578;81;21053;-63
2021/04/28 05:09:29;;;;;;;4.97;2.15;;;;;;;23.21;45.85;100816.98;1748057;80;21545;-62
2021/04/28 05:11:56;;;;;;;2.85;2.00;;;;;;;23.21;45.69;100814.20;1717063;82;21198;-61
2021/04/28 05:14:23;;;;;;;3.00;1.82;;;;;;;23.21;45.60;100812.03;1713411;82;21620;-62
2021/04/28 05:16:49;;;;;;;3.30;2.08;;;;;;;23.20;45.51;100813.17;1737964;80;21248;-63
2021/04/28 05:19:16;;;;;;;3.70;2.05;;;;;;;23.21;45.45;100827.30;1752225;81;21850;-63
2021/04/28 05:21:42;;;;;;;2.70;2.30;;;;;;;23.20;45.41;100820.92;1742282;80;22051;-63
2021/04/28 05:24:09;;;;;;;4.05;2.33;;;;;;;23.21;45.38;100832.84;1746065;80;21140;-66
2021/04/28 05:26:36;;;;;;;3.40;2.75;;;;;;;23.20;45.21;100832.60;1714815;81;21966;-62
2021/04/28 05:29:04;;;;;;;5.67;2.60;;;;;;;23.16;44.92;100835.80;1765419;79;21165;-62
2021/04/28 05:31:31;;;;;;;6.05;2.70;;;;;;;23.12;44.68;100829.30;1758313;80;21643;-63
2021/04/28 05:33:58;;;;;;;4.58;2.30;;;;;;;23.08;44.37;100837.48;1781957;79;21220;-63
2021/04/28 05:36:25;;;;;;;4.03;2.27;;;;;;;23.06;44.28;100840.33;1770569;79;21168;-62
2021/04/28 05:38:54;;;;;;;4.50;2.37;;;;;;;23.06;44.28;100837.55;1777197;79;21207;-62
2021/04/28 05:41:20;;;;;;;4.12;2.20;;;;;;;23.06;44.32;100842.53;1775365;79;21225;-62
2021/04/28 05:43:47;;;;;;;2.62;1.92;;;;;;;23.07;44.32;100858.62;1774464;80;21617;-63
2021/04/28 05:46:16;;;;;;;6.47;2.00;;;;;;;23.06;44.35;100855.02;1779649;79;21151;-63
2021/04/28 05:48:43;;;;;;;3.95;2.20;;;;;;;23.08;44.36;100861.64;1744936;81;21192;-63
2021/04/28 05:51:09;;;;;;;4.58;2.27;;;;;;;23.08;44.34;100869.39;1762947;80;21186;-63
2021/04/28 05:53:36;;;;;;;3.77;2.30;;;;;;;23.08;44.36;100856.91;1771884;80;21934;-63
2021/04/28 05:58:52;;;;;;;3.90;1.98;;;;;;;23.08;44.37;100856.91;1718563;82;21271;-63
2021/04/28 06:01:18;;;;;;;3.60;2.30;;;;;;;23.08;44.37;100853.31;1731013;82;21177;-63
2021/04/28 06:03:45;;;;;;;4.08;2.40;;;;;;;23.09;44.36;100861.86;1733569;82;21854;-64
2021/04/28 06:06:12;;;;;;;3.77;2.95;;;;;;;23.08;44.36;100861.07;1697954;80;21903;-63
2021/04/28 06:08:39;;;;;;;5.45;2.58;;;;;;;23.08;44.33;100864.41;1698504;83;21206;-63
2021/04/28 06:11:05;;;;;;;3.50;2.00;;;;;;;23.08;44.34;100865.80;1690876;83;21181;-62
2021/04/28 06:13:31;;;;;;;3.22;2.27;;;;;;;23.08;44.34;100874.13;1692305;83;21217;-63
2021/04/28 06:15:59;;;;;;;3.92;2.37;;;;;;;23.08;44.33;100876.33;1694839;83;21591;-62
2021/04/28 06:18:25;;;;;;;3.08;2.02;;;;;;;23.08;44.33;100879.67;1706230;82;21569;-63
2021/04/28 06:20:54;;;;;;;3.42;2.20;;;;;;;23.08;44.32;100876.91;1710044;82;21482;-63
2021/04/28 06:23:20;;;;;;;4.03;2.20;;;;;;;23.08;44.33;100856.09;1711061;82;21992;-63
2021/04/28 06:25:49;;;;;;;3.33;2.30;;;;;;;23.08;44.32;100843.60;1714408;82;21228;-63
2021/04/28 06:28:15;;;;;;;5.05;2.70;;;;;;;23.07;44.32;100859.44;1724723;81;21251;-63
2021/04/28 06:30:42;;;;;;;4.12;2.15;;;;;;;23.07;44.30;100857.23;1712911;83;21202;-63
2021/04/28 06:33:08;;;;;;;4.12;2.10;;;;;;;23.07;44.31;100862.20;1710344;82;21639;-63
2021/04/28 06:35:35;;;;;;;4.78;2.22;;;;;;;23.07;44.31;100856.66;1714309;81;21187;-63
2021/04/28 06:38:01;;;;;;;3.25;2.45;;;;;;;23.07;44.28;100858.62;1717936;82;21442;-63
2021/04/28 06:40:28;;;;;;;3.33;2.55;;;;;;;23.05;44.27;100866.45;1684793;84;21233;-63
2021/04/28 06:42:54;;;;;;;3.60;2.20;;;;;;;23.07;44.27;100866.38;1734708;81;21246;-63
2021/04/28 06:45:21;;;;;;;3.95;2.52;;;;;;;23.07;44.27;100866.94;1714535;82;21217;-63
2021/04/28 06:47:48;;;;;;;4.10;2.58;;;;;;;23.07;44.28;100878.04;1738435;81;21229;-63
2021/04/28 06:50:14;;;;;;;4.35;2.02;;;;;;;23.06;44.27;100885.55;1705963;82;21218;-63
2021/04/28 06:52:44;;;;;;;4.35;2.30;;;;;;;23.06;44.27;100883.34;1712938;81;21266;-63
2021/04/28 06:55:11;;;;;;;4.85;2.35;;;;;;;23.06;44.28;100885.55;1735076;81;21915;-63
2021/04/28 06:57:38;;;;;;;4.42;2.35;;;;;;;23.07;44.27;100883.59;1692693;83;21197;-63
2021/04/28 07:00:06;;;;;;;3.12;2.10;;;;;;;23.07;44.27;100883.59;1692321;83;21218;-63
2021/04/28 07:02:33;;;;;;;4.28;2.40;;;;;;;23.05;44.29;100886.69;1707473;83;21161;-61
2021/04/28 07:05:00;;;;;;;3.58;2.40;;;;;;;23.06;44.27;100893.88;1726521;81;21274;-63
2021/04/28 07:07:26;;;;;;;4.42;2.67;;;;;;;23.07;44.30;100905.80;1702242;82;21190;-63
2021/04/28 07:09:53;;;;;;;4.67;2.45;;;;;;;23.07;44.31;100911.34;1706386;82;21213;-63
2021/04/28 07:12:20;;;;;;;3.92;2.75;;;;;;;23.07;44.28;100919.67;1706273;83;21245;-63
2021/04/28 07:14:46;;;;;;;5.60;2.60;;;;;;;23.06;44.29;100924.40;1702368;82;21169;-63
2021/04/28 07:17:13;;;;;;;4.60;2.70;;;;;;;23.07;44.28;100922.44;1728981;82;22172;-63
2021/04/28 07:19:39;;;;;;;3.95;2.45;;;;;;;23.07;44.28;100921.05;1734842;81;21922;-64
2021/04/28 07:22:06;;;;;;;3.67;2.65;;;;;;;23.06;44.29;100919.42;1694293;83;21714;-63
2021/04/28 07:24:34;;;;;;;4.83;2.50;;;;;;;23.07;44.28;100922.44;1723928;81;21027;-63
2021/04/28 07:27:00;;;;;;;5.30;2.85;;;;;;;23.06;44.28;100917.46;1730320;81;21208;-64
2021/04/28 07:29:27;;;;;;;3.65;2.27;;;;;;;23.05;44.29;100928.31;1729692;82;21747;-63
2021/04/28 07:31:53;;;;;;;3.80;2.40;;;;;;;23.06;44.28;100916.64;1685642;81;21843;-63
2021/04/28 07:34:20;;;;;;;2.95;2.42;;;;;;;23.05;44.29;100924.72;1728962;81;21445;-63
2021/04/28 07:36:46;;;;;;;3.55;2.50;;;;;;;23.05;44.29;100926.11;1728284;81;21154;-63
2021/04/28 07:39:12;;;;;;;3.85;2.35;;;;;;;23.04;44.27;100925.89;1732188;82;21617;-63
2021/04/28 07:41:39;;;;;;;4.55;2.37;;;;;;;23.05;44.28;100927.50;1727701;81;21181;-64
2021/04/28 07:44:05;;;;;;;3.87;2.22;;;;;;;23.04;44.27;100922.52;1727669;80;21154;-63
2021/04/28 07:46:34;;;;;;;4.97;2.47;;;;;;;23.03;44.28;100923.69;1701517;83;21198;-63
2021/04/28 07:49:04;;;;;;;2.83;2.00;;;;;;;23.03;44.28;100926.45;1716180;81;21185;-63
2021/04/28 07:51:28;;;;;;;3.98;2.00;;;;;;;23.04;44.28;100930.84;1686738;83;21173;-64
2021/04/28 07:53:55;;;;;;;2.42;1.75;;;;;;;23.04;44.27;100921.73;1701558;82;21192;-63
2021/04/28 07:56:21;;;;;;;4.30;2.33;;;;;;;23.03;44.27;100923.69;1706412;82;21175;-63
2021/04/28 07:58:48;;;;;;;3.42;2.33;;;;;;;23.02;44.24;100919.27;1702144;82;21195;-63
2021/04/28 08:01:14;;;;;;;2.62;1.95;;;;;;;23.04;44.25;100927.28;1722258;81;21198;-64
2021/04/28 08:03:41;;;;;;;3.65;2.12;;;;;;;23.02;44.25;100925.39;1689807;83;21202;-64
2021/04/28 08:06:07;;;;;;;3.12;2.10;;;;;;;23.01;44.23;100925.95;1689054;83;22155;-63
2021/04/28 08:08:34;;;;;;;4.33;2.27;;;;;;;23.02;44.23;100929.55;1735412;81;21177;-63
2021/04/28 08:11:01;;;;;;;3.35;2.10;;;;;;;23.03;44.22;100938.13;1738538;81;21605;-64
2021/04/28 08:13:27;;;;;;;2.85;1.90;;;;;;;23.02;44.21;100935.10;1737360;82;21152;-63
2021/04/28 08:15:54;;;;;;;2.60;2.15;;;;;;;23.00;44.21;100937.41;1707809;82;21198;-64
2021/04/28 08:18:21;;;;;;;3.20;2.22;;;;;;;23.01;44.20;100937.63;1736002;81;21205;-63
2021/04/28 08:20:48;;;;;;;4.15;2.00;;;;;;;23.01;44.21;100943.17;1738255;81;21169;-63
2021/04/28 08:23:15;;;;;;;3.12;2.10;;;;;;;23.00;44.16;100952.07;1745689;81;21131;-62
2021/04/28 08:25:42;;;;;;;3.47;1.80;;;;;;;22.99;44.18;100949.08;1738011;81;21145;-62
2021/04/28 08:28:10;;;;;;;3.10;2.17;;;;;;;22.99;44.18;100943.53;1741536;81;21151;-63
2021/04/28 08:30:39;;;;;;;3.20;2.00;;;;;;;23.00;44.17;100942.36;1738662;82;22170;-62
2021/04/28 08:33:06;;;;;;;3.27;2.20;;;;;;;22.99;44.16;100944.09;1708761;82;21206;-63
2021/04/28 08:35:32;;;;;;;3.20;2.00;;;;;;;23.01;44.16;100939.02;1735828;81;21125;-63
2021/04/28 08:37:58;;;;;;;3.80;2.35;;;;;;;22.99;44.13;100941.33;1710165;82;21653;-63
2021/04/28 08:40:24;;;;;;;3.45;1.70;;;;;;;22.99;44.12;100946.30;1735333;80;21571;-63
2021/04/28 08:42:51;;;;;;;2.45;1.72;;;;;;;22.98;44.13;100947.44;1739748;81;21066;-63
2021/04/28 08:45:18;;;;;;;2.62;1.92;;;;;;;23.00;44.12;100940.19;1739331;81;21611;-63
2021/04/28 08:47:44;;;;;;;3.10;2.12;;;;;;;22.99;44.11;100942.71;1738794;80;21177;-63
2021/04/28 08:50:12;;;;;;;3.52;1.90;;;;;;;22.98;44.11;100929.41;1740500;81;21153;-63
2021/04/28 08:52:38;;;;;;;2.58;1.72;;;;;;;22.98;44.11;100929.97;1739754;81;21152;-63
2021/04/28 08:55:08;;;;;;;3.20;2.22;;;;;;;22.97;44.10;100925.56;1739216;81;21214;-63
2021/04/28 08:57:35;;;;;;;2.67;1.90;;;;;;;22.97;44.10;100917.23;1745084;81;21503;-63
2021/04/28 09:00:06;;;;;;;4.55;1.80;;;;;;;22.95;44.10;100906.49;1705907;83;21545;-63
2021/04/28 09:02:33;;;;;;;2.08;1.45;;;;;;;22.96;44.08;100901.16;1731163;81;21173;-63
2021/04/28 09:05:12;;;;;;;2.92;1.70;;;;;;;22.95;44.10;100891.80;1729522;81;21617;-63
2021/04/28 09:07:40;;;;;;;2.52;1.57;;;;;;;22.96;44.11;100876.19;1670246;84;21245;-63
2021/04/28 09:10:13;;;;;;;3.12;1.82;;;;;;;22.98;44.15;100878.08;1650391;84;21173;-63
2021/04/28 09:12:41;;;;;;;2.15;1.60;;;;;;;23.02;44.14;100880.99;1682459;85;21150;-63
2021/04/28 09:15:12;;;;;;;3.90;1.87;;;;;;;23.03;44.15;100885.41;1684808;83;21100;-63
2021/04/28 09:17:52;;;;;;;2.75;1.90;;;;;;;23.05;44.18;100901.13;1698924;82;21589;-63
2021/04/28 09:20:27;;;;;;;2.47;1.70;;;;;;;23.07;44.15;100903.02;1654460;84;21601;-62
2021/04/28 09:23:12;;;;;;;2.75;1.65;;;;;;;23.08;44.19;100897.14;1707231;82;21212;-63
2021/04/28 09:25:43;;;;;;;2.22;1.52;;;;;;;23.13;44.18;100901.67;1646028;83;21015;-63
2021/04/28 09:28:32;;;;;;;2.50;1.57;;;;;;;23.13;44.20;100894.73;1686570;83;21213;-63
2021/04/28 09:31:12;;;;;;;2.05;1.47;;;;;;;23.16;44.19;100885.19;1680303;84;21531;-63
2021/04/28 09:33:57;;;;;;;2.30;1.52;;;;;;;23.18;44.20;100889.00;1683765;83;21292;-63
2021/04/28 09:36:30;;;;;;;9.13;6.03;;;;;;;23.20;44.18;100886.16;1706540;83;21150;-63
2021/04/28 09:39:05;;;;;;;22.37;13.95;;;;;;;23.23;44.18;100891.03;1679308;84;21490;-63
2021/04/28 09:41:57;;;;;;;62.50;33.28;;;;;;;23.27;44.16;100905.63;1668011;84;21683;-63
2021/04/28 09:44:30;;;;;;;62.98;33.63;;;;;;;23.29;44.14;100904.73;1687846;83;21222;-63
2021/04/28 09:47:02;;;;;;;56.75;29.35;;;;;;;23.30;44.07;100900.22;1687244;83;21154;-63
2021/04/28 09:49:52;;;;;;;57.33;28.85;;;;;;;23.32;44.03;100911.81;1684936;84;20984;-65
2021/04/28 09:52:24;;;;;;;47.13;26.73;;;;;;;23.34;43.99;100905.94;1687017;84;21256;-63
2021/04/28 09:54:52;;;;;;;44.30;24.63;;;;;;;23.34;43.96;100917.83;1687149;83;21677;-63
2021/04/28 09:57:26;;;;;;;40.00;20.62;;;;;;;23.36;43.90;100907.79;1685713;83;21624;-63
2021/04/28 09:59:53;;;;;;;43.15;22.20;;;;;;;23.37;43.89;100907.47;1613859;83;22137;-64
2021/04/28 10:02:28;;;;;;;40.00;20.43;;;;;;;23.39;43.84;100909.89;1694656;83;21253;-64
2021/04/28 10:05:33;;;;;;;33.65;19.45;;;;;;;23.41;43.81;100913.98;1686969;83;21214;-63
2021/04/28 10:08:13;;;;;;;31.50;17.42;;;;;;;23.41;43.79;100902.05;1607173;87;21278;-63
2021/04/28 10:10:58;;;;;;;30.08;16.27;;;;;;;23.40;43.74;100904.02;1677884;83;21585;-63
2021/04/28 10:13:25;;;;;;;31.45;16.17;;;;;;;23.41;43.69;100904.27;1686531;83;21265;-63
2021/04/28 10:15:52;;;;;;;25.97;14.35;;;;;;;23.40;43.64;100913.73;1681780;84;21868;-62
2021/04/28 10:18:22;;;;;;;22.27;12.35;;;;;;;23.42;43.57;100921.73;1686231;84;21181;-63
2021/04/28 10:20:50;;;;;;;21.70;11.88;;;;;;;23.42;43.51;100901.73;1681786;84;21565;-63
2021/04/28 10:23:18;;;;;;;19.98;11.30;;;;;;;23.43;43.44;100908.92;1692828;83;21178;-63
2021/04/28 10:25:49;;;;;;;20.72;11.25;;;;;;;23.42;43.35;100911.45;1684967;84;21281;-63
2021/04/28 10:28:15;;;;;;;16.12;9.98;;;;;;;23.42;43.27;100907.86;1683153;84;21179;-63
2021/04/28 10:30:47;;;;;;;17.07;9.48;;;;;;;23.42;43.22;100913.41;1685480;83;21190;-63
2021/04/28 10:33:28;;;;;;;15.83;8.70;;;;;;;23.42;43.15;100909.24;1682864;84;21688;-63
2021/04/28 10:35:56;;;;;;;15.43;9.15;;;;;;;23.42;43.09;100916.19;1684743;83;21036;-62
2021/04/28 10:38:26;;;;;;;14.73;8.93;;;;;;;23.42;43.05;100907.28;1655468;84;21191;-62
2021/04/28 10:40:54;;;;;;;13.13;7.45;;;;;;;23.41;42.96;100908.42;1685847;84;21176;-63
2021/04/28 10:43:20;;;;;;;12.65;7.67;;;;;;;23.40;42.92;100912.34;1688360;83;21550;-63
2021/04/28 10:45:48;;;;;;;13.38;7.72;;;;;;;23.40;42.91;100917.08;1690571;83;21181;-63
2021/04/28 10:48:15;;;;;;;10.90;6.83;;;;;;;23.40;42.89;100919.28;1680135;83;21605;-63
2021/04/28 10:50:45;;;;;;;17.98;7.25;;;;;;;23.40;42.88;100905.97;1639328;85;21655;-63
2021/04/28 10:53:45;;;;;;;13.80;7.28;;;;;;;23.38;42.92;100907.69;1670595;84;21229;-63
2021/04/28 10:56:13;;;;;;;16.80;7.95;;;;;;;23.38;42.92;100905.52;1672763;84;21269;-63
2021/04/28 10:58:44;;;;;;;14.90;6.78;;;;;;;23.37;42.95;100908.04;1667240;84;21902;-63
2021/04/28 11:01:21;;;;;;;10.30;6.08;;;;;;;23.42;42.97;100903.69;1887136;76;22560;-64
2021/04/28 11:03:57;;;;;;;10.45;6.20;;;;;;;23.36;42.98;100902.23;1810636;78;21003;-63
2021/04/28 11:06:29;;;;;;;10.23;5.85;;;;;;;23.36;42.98;100910.00;1801508;78;21209;-63
2021/04/28 11:09:06;;;;;;;10.28;6.00;;;;;;;23.36;43.02;100910.00;1813001;78;21195;-64
2021/04/28 11:11:38;;;;;;;11.93;6.10;;;;;;;23.36;43.03;100912.77;1785640;80;21033;-64
2021/04/28 11:14:21;;;;;;;11.40;5.70;;;;;;;23.36;43.04;100913.34;1794767;79;21044;-64
2021/04/28 11:16:52;;;;;;;10.80;5.20;;;;;;;23.36;43.04;100915.55;1786531;78;21102;-64
2021/04/28 11:19:35;;;;;;;7.97;4.90;;;;;;;23.37;43.05;100910.81;1809717;77;21191;-64
2021/04/28 11:22:24;;;;;;;8.58;5.35;;;;;;;23.36;43.05;100913.34;1806486;77;21840;-64
2021/04/28 11:25:10;;;;;;;8.53;4.75;;;;;;;23.36;43.07;100917.51;1807052;77;21269;-63
2021/04/28 11:28:06;;;;;;;7.45;5.03;;;;;;;23.37;43.09;100910.81;1802696;77;21139;-64
2021/04/28 11:30:43;;;;;;;8.30;4.80;;;;;;;23.36;43.09;100907.79;1811721;77;21175;-63
2021/04/28 11:33:32;;;;;;;8.23;5.20;;;;;;;23.37;43.10;100901.91;1777690;78;21130;-64
2021/04/28 11:36:07;;;;;;;8.63;4.62;;;;;;;23.37;43.11;100897.75;1805618;77;21145;-63